createdAt,value
2018-12-26T00:00:14.859Z,16.30
2018-12-26T00:02:56.613Z,6.45
2018-12-26T00:05:38.012Z,7.90
2018-12-26T00:08:19.630Z,8.23
2018-12-26T00:11:00.553Z,1.55
2018-12-26T00:13:41.858Z,11.08
2018-12-26T00:16:23.620Z,8.60
2018-12-26T00:19:05.470Z,22.15
2018-12-26T00:21:47.017Z,7.37
2018-12-26T00:24:28.323Z,11.80
2018-12-26T00:27:09.850Z,13.32
2018-12-26T00:29:51.335Z,17.67
2018-12-26T00:32:32.916Z,15.78
2018-12-26T00:35:13.985Z,12.55
2018-12-26T00:37:55.197Z,16.93
2018-12-26T00:40:36.137Z,11.85
2018-12-26T00:43:17.741Z,13.90
2018-12-26T00:45:58.577Z,14.35
2018-12-26T00:48:40.109Z,15.75
2018-12-26T00:51:21.770Z,11.78
2018-12-26T00:54:03.151Z,15.32
2018-12-26T00:56:44.708Z,9.38
2018-12-26T00:59:25.923Z,15.18
2018-12-26T01:02:07.644Z,22.15
2018-12-26T01:04:48.979Z,12.98
2018-12-26T01:07:30.154Z,13.88
2018-12-26T01:10:11.566Z,16.45
2018-12-26T01:12:52.596Z,11.93
2018-12-26T01:15:34.071Z,10.90
2018-12-26T01:18:15.365Z,13.58
2018-12-26T01:20:56.753Z,12.05
2018-12-26T01:23:38.461Z,8.88
2018-12-26T01:26:19.919Z,9.33
2018-12-26T01:29:01.576Z,10.95
2018-12-26T01:31:42.801Z,11.12
2018-12-26T01:34:24.754Z,9.08
2018-12-26T01:37:06.046Z,10.48
2018-12-26T01:39:47.385Z,7.42
2018-12-26T01:42:29.059Z,9.15
2018-12-26T01:45:10.342Z,9.15
2018-12-26T01:47:51.748Z,8.48
2018-12-26T01:50:32.674Z,11.80
2018-12-26T01:53:13.821Z,7.28
2018-12-26T01:55:55.338Z,16.15
2018-12-26T01:58:37.073Z,7.83
2018-12-26T02:01:18.320Z,8.40
2018-12-26T02:03:59.688Z,7.50
2018-12-26T02:06:40.677Z,3.10
2018-12-26T02:09:22.014Z,5.78
2018-12-26T02:12:03.681Z,2.85
2018-12-26T02:14:44.764Z,3.15
2018-12-26T02:17:26.477Z,11.25
2018-12-26T02:20:07.445Z,4.70
2018-12-26T02:22:48.316Z,8.45
2018-12-26T02:25:30.091Z,10.15
2018-12-26T02:28:11.040Z,9.28
2018-12-26T02:30:52.214Z,8.88
2018-12-26T02:33:33.576Z,7.12
2018-12-26T02:36:14.837Z,11.20
2018-12-26T02:38:55.802Z,8.15
2018-12-26T02:41:35.492Z,11.20
2018-12-26T02:44:24.013Z,7.92
2018-12-26T02:47:12.611Z,9.80
2018-12-26T02:50:01.122Z,6.12
2018-12-26T02:52:49.633Z,8.30
2018-12-26T02:55:38.275Z,10.23
2018-12-26T02:58:26.873Z,11.30
2018-12-26T03:01:15.458Z,7.92
2018-12-26T03:04:04.006Z,6.72
2018-12-26T03:06:52.524Z,6.80
2018-12-26T03:09:41.401Z,4.92
2018-12-26T03:12:29.931Z,7.65
2018-12-26T03:15:18.726Z,10.03
2018-12-26T03:18:07.328Z,4.33
2018-12-26T03:20:55.935Z,5.22
2018-12-26T03:23:44.566Z,6.78
2018-12-26T03:26:33.089Z,5.50
2018-12-26T03:29:14.295Z,8.75
2018-12-26T03:31:55.263Z,5.70
2018-12-26T03:34:36.603Z,7.90
2018-12-26T03:37:18.281Z,4.33
2018-12-26T03:39:59.647Z,6.72
2018-12-26T03:42:40.671Z,2.83
2018-12-26T03:45:22.002Z,5.00
2018-12-26T03:48:03.053Z,5.72
2018-12-26T03:50:42.780Z,3.98
2018-12-26T03:53:31.364Z,3.83
2018-12-26T03:56:28.092Z,3.77
2018-12-26T03:59:16.688Z,4.15
2018-12-26T04:02:05.302Z,2.67
2018-12-26T04:04:53.884Z,6.60
2018-12-26T04:07:42.421Z,6.80
2018-12-26T04:10:30.930Z,6.22
2018-12-26T04:13:19.537Z,5.05
2018-12-26T04:16:08.353Z,6.80
2018-12-26T04:18:56.890Z,4.70
2018-12-26T04:21:45.405Z,4.65
2018-12-26T04:24:26.461Z,4.60
2018-12-26T04:27:15.505Z,3.98
2018-12-26T04:29:51.797Z,3.52
2018-12-26T04:32:33.525Z,3.75
2018-12-26T04:35:14.831Z,3.65
2018-12-26T04:37:56.865Z,5.42
2018-12-26T04:40:37.696Z,2.62
2018-12-26T04:43:19.321Z,5.65
2018-12-26T04:46:00.165Z,3.92
2018-12-26T04:48:40.938Z,3.75
2018-12-26T04:51:21.795Z,7.90
2018-12-26T04:53:51.333Z,7.75
2018-12-26T04:56:39.950Z,4.35
2018-12-26T04:59:28.464Z,5.72
2018-12-26T05:02:17.005Z,6.35
2018-12-26T05:05:05.530Z,5.53
2018-12-26T05:07:54.134Z,6.40
2018-12-26T05:10:42.729Z,8.08
2018-12-26T05:13:31.312Z,4.70
2018-12-26T05:16:20.109Z,3.42
2018-12-26T05:19:08.701Z,4.10
2018-12-26T05:21:49.666Z,3.00
2018-12-26T05:24:30.597Z,7.45
2018-12-26T05:27:11.786Z,5.67
2018-12-26T05:29:53.169Z,6.35
2018-12-26T05:32:34.593Z,4.03
2018-12-26T05:35:16.281Z,2.25
2018-12-26T05:37:58.252Z,3.10
2018-12-26T05:40:39.053Z,1.90
2018-12-26T05:43:20.379Z,3.22
2018-12-26T05:46:01.829Z,3.95
2018-12-26T05:48:43.720Z,2.52
2018-12-26T05:51:25.213Z,10.20
2018-12-26T05:54:06.995Z,2.17
2018-12-26T05:56:48.058Z,3.40
2018-12-26T05:59:29.576Z,6.83
2018-12-26T06:02:10.433Z,4.90
2018-12-26T06:04:51.940Z,2.20
2018-12-26T06:07:32.828Z,3.12
2018-12-26T06:10:14.338Z,2.95
2018-12-26T06:12:55.959Z,3.05
2018-12-26T06:15:37.326Z,2.98
2018-12-26T06:18:18.443Z,2.50
2018-12-26T06:20:59.393Z,3.90
2018-12-26T06:23:40.190Z,3.90
2018-12-26T06:26:21.473Z,5.92
2018-12-26T06:29:02.732Z,3.98
2018-12-26T06:31:43.871Z,5.17
2018-12-26T06:34:25.194Z,4.35
2018-12-26T06:37:06.266Z,3.42
2018-12-26T06:39:47.642Z,3.72
2018-12-26T06:42:28.903Z,2.15
2018-12-26T06:45:10.069Z,4.67
2018-12-26T06:47:51.861Z,3.40
2018-12-26T06:50:33.141Z,4.20
2018-12-26T06:53:13.978Z,4.87
2018-12-26T06:55:55.318Z,5.37
2018-12-26T06:58:36.970Z,4.62
2018-12-26T07:01:18.093Z,6.05
2018-12-26T07:03:59.281Z,4.50
2018-12-26T07:06:40.485Z,3.70
2018-12-26T07:09:21.695Z,3.27
2018-12-26T07:12:03.394Z,5.40
2018-12-26T07:14:45.124Z,3.60
2018-12-26T07:17:26.420Z,2.92
2018-12-26T07:20:07.941Z,3.80
2018-12-26T07:22:48.978Z,4.55
2018-12-26T07:25:29.878Z,3.58
2018-12-26T07:28:10.742Z,2.95
2018-12-26T07:30:51.746Z,6.08
2018-12-26T07:33:32.901Z,3.00
2018-12-26T07:36:14.129Z,3.45
2018-12-26T07:38:55.398Z,4.30
2018-12-26T07:41:36.982Z,2.90
2018-12-26T07:44:17.765Z,4.28
2018-12-26T07:46:59.021Z,4.15
2018-12-26T07:49:39.762Z,4.87
2018-12-26T07:52:21.093Z,3.90
2018-12-26T07:55:02.679Z,4.30
2018-12-26T07:57:44.255Z,2.83
2018-12-26T08:00:25.814Z,3.77
2018-12-26T08:03:07.269Z,4.30
2018-12-26T08:05:48.705Z,3.72
2018-12-26T08:08:29.548Z,7.78
2018-12-26T08:11:11.133Z,3.77
2018-12-26T08:13:52.673Z,6.80
2018-12-26T08:16:33.775Z,4.15
2018-12-26T08:19:15.401Z,7.62
2018-12-26T08:21:56.752Z,5.15
2018-12-26T08:24:37.754Z,3.72
2018-12-26T08:27:19.358Z,3.85
2018-12-26T08:29:48.937Z,5.20
2018-12-26T08:32:37.528Z,3.55
2018-12-26T08:35:26.221Z,4.47
2018-12-26T08:38:14.744Z,3.27
2018-12-26T08:41:03.669Z,7.28
2018-12-26T08:43:52.213Z,5.50
2018-12-26T08:46:41.357Z,3.17
2018-12-26T08:49:30.041Z,3.33
2018-12-26T08:52:18.574Z,6.37
2018-12-26T08:55:07.530Z,4.20
2018-12-26T08:57:56.329Z,7.10
2018-12-26T09:00:37.745Z,9.15
2018-12-26T09:03:18.782Z,4.22
2018-12-26T09:06:00.270Z,2.47
2018-12-26T09:08:41.707Z,3.27
2018-12-26T09:11:23.343Z,6.60
2018-12-26T09:14:04.961Z,2.98
2018-12-26T09:16:46.328Z,1.82
2018-12-26T09:19:27.986Z,1.75
2018-12-26T09:22:09.343Z,1.60
2018-12-26T09:24:50.598Z,3.92
2018-12-26T09:27:31.830Z,4.22
2018-12-26T09:30:12.892Z,3.65
2018-12-26T09:32:53.890Z,3.30
2018-12-26T09:35:35.521Z,2.05
2018-12-26T09:38:16.947Z,4.70
2018-12-26T09:40:58.388Z,7.50
2018-12-26T09:43:39.270Z,7.50
2018-12-26T09:46:20.235Z,6.60
2018-12-26T09:49:00.706Z,2.10
2018-12-26T09:51:41.258Z,2.07
2018-12-26T09:54:22.503Z,2.10
2018-12-26T09:57:03.033Z,7.87
2018-12-26T09:59:43.617Z,5.70
2018-12-26T10:02:25.018Z,4.10
2018-12-26T10:05:06.181Z,11.23
2018-12-26T10:07:47.624Z,3.77
2018-12-26T10:10:28.693Z,5.17
2018-12-26T10:13:09.290Z,5.10
2018-12-26T10:15:48.696Z,4.00
2018-12-26T10:18:36.977Z,2.40
2018-12-26T10:21:25.492Z,1.80
2018-12-26T10:24:13.822Z,4.37
2018-12-26T10:27:02.530Z,3.83
2018-12-26T10:29:50.870Z,4.90
2018-12-26T10:32:39.227Z,6.47
2018-12-26T10:35:27.916Z,4.40
2018-12-26T10:38:16.236Z,4.43
2018-12-26T10:41:04.561Z,6.00
2018-12-26T10:43:52.877Z,5.87
2018-12-26T10:46:41.122Z,5.70
2018-12-26T10:49:29.398Z,6.97
2018-12-26T10:52:17.716Z,6.50
2018-12-26T10:55:06.056Z,5.00
2018-12-26T10:57:54.364Z,6.27
2018-12-26T11:00:42.953Z,6.10
2018-12-26T11:03:31.278Z,4.80
2018-12-26T11:06:12.325Z,5.73
2018-12-26T11:08:53.092Z,5.73
2018-12-26T11:11:34.346Z,5.17
2018-12-26T11:14:14.921Z,4.57
2018-12-26T11:16:55.674Z,7.47
2018-12-26T11:19:36.295Z,8.10
2018-12-26T11:22:17.374Z,6.30
2018-12-26T11:24:58.390Z,4.20
2018-12-26T11:27:39.194Z,4.43
2018-12-26T11:30:20.298Z,4.07
2018-12-26T11:33:01.542Z,4.00
2018-12-26T11:35:42.480Z,3.70
2018-12-26T11:38:23.427Z,5.53
2018-12-26T11:41:05.268Z,4.30
2018-12-26T11:43:46.111Z,4.40
2018-12-26T11:46:26.776Z,3.30
2018-12-26T11:49:07.713Z,4.50
2018-12-26T11:51:48.288Z,3.77
2018-12-26T11:54:29.480Z,5.27
2018-12-26T11:57:10.113Z,4.47
2018-12-26T11:59:51.430Z,5.23
2018-12-26T12:02:32.353Z,4.33
2018-12-26T12:05:13.590Z,5.10
2018-12-26T12:07:54.792Z,3.50
2018-12-26T12:10:35.941Z,4.53
2018-12-26T12:13:16.747Z,4.87
2018-12-26T12:15:58.108Z,3.80
2018-12-26T12:18:39.088Z,3.10
2018-12-26T12:21:20.214Z,4.40
2018-12-26T12:24:01.424Z,4.83
2018-12-26T12:26:42.652Z,5.40
2018-12-26T12:29:23.677Z,3.73
2018-12-26T12:32:04.188Z,3.73
2018-12-26T12:34:43.601Z,3.20
2018-12-26T12:37:31.858Z,2.73
2018-12-26T12:40:20.119Z,3.07
2018-12-26T12:43:08.920Z,3.67
2018-12-26T12:45:57.641Z,3.00
2018-12-26T12:48:45.976Z,4.37
2018-12-26T12:51:34.254Z,4.20
2018-12-26T12:54:22.506Z,3.43
2018-12-26T12:56:51.706Z,7.73
2018-12-26T12:59:44.826Z,3.33
2018-12-26T13:02:30.206Z,3.20
2018-12-26T13:05:18.559Z,3.80
2018-12-26T13:08:06.897Z,2.53
2018-12-26T13:10:55.142Z,3.50
2018-12-26T13:13:43.514Z,3.03
2018-12-26T13:16:31.802Z,4.40
2018-12-26T13:19:20.132Z,2.90
2018-12-26T13:22:08.441Z,5.73
2018-12-26T13:24:56.792Z,2.80
2018-12-26T13:27:45.108Z,3.67
2018-12-26T13:30:33.369Z,2.90
2018-12-26T13:33:21.705Z,3.70
2018-12-26T13:36:10.030Z,2.70
2018-12-26T13:38:58.381Z,3.10
2018-12-26T13:41:46.621Z,3.43
2018-12-26T13:44:34.944Z,2.03
2018-12-26T13:47:23.272Z,2.53
2018-12-26T13:50:11.628Z,3.13
2018-12-26T13:53:00.230Z,3.30
2018-12-26T13:55:48.568Z,4.50
2018-12-26T13:58:37.173Z,5.40
2018-12-26T14:01:25.474Z,3.83
2018-12-26T14:04:06.696Z,4.27
2018-12-26T14:06:47.555Z,5.07
2018-12-26T14:09:28.725Z,4.77
2018-12-26T14:12:09.581Z,9.20
2018-12-26T14:14:50.673Z,7.93
2018-12-26T14:17:31.212Z,8.57
2018-12-26T14:20:12.015Z,14.00
2018-12-26T14:22:53.191Z,9.67
2018-12-26T14:25:34.416Z,8.60
2018-12-26T14:28:15.646Z,9.23
2018-12-26T14:30:56.800Z,10.20
2018-12-26T14:33:38.200Z,8.03
2018-12-26T14:36:19.158Z,9.67
2018-12-26T14:39:00.358Z,12.70
2018-12-26T14:41:41.175Z,10.40
2018-12-26T14:44:22.027Z,14.10
2018-12-26T14:47:03.109Z,10.17
2018-12-26T14:49:43.556Z,8.97
2018-12-26T14:52:24.950Z,9.50
2018-12-26T14:55:05.495Z,13.40
2018-12-26T14:57:45.993Z,10.40
2018-12-26T15:00:26.638Z,10.03
2018-12-26T15:03:07.929Z,10.27
2018-12-26T15:05:48.631Z,9.90
2018-12-26T15:08:29.564Z,9.67
2018-12-26T15:11:10.590Z,10.37
2018-12-26T15:13:51.142Z,9.00
2018-12-26T15:16:31.952Z,9.03
2018-12-26T15:19:12.471Z,9.33
2018-12-26T15:21:52.949Z,10.00
2018-12-26T15:24:34.395Z,8.30
2018-12-26T15:27:15.336Z,8.33
2018-12-26T15:29:56.625Z,8.90
2018-12-26T15:32:37.093Z,11.97
2018-12-26T15:35:18.334Z,10.60
2018-12-26T15:37:59.447Z,11.40
2018-12-26T15:40:40.763Z,10.80
2018-12-26T15:43:21.837Z,15.37
2018-12-26T15:46:02.463Z,10.63
2018-12-26T15:48:43.289Z,8.07
2018-12-26T15:51:24.637Z,12.20
2018-12-26T15:54:05.681Z,7.67
2018-12-26T15:56:47.052Z,11.50
2018-12-26T15:59:27.885Z,11.77
2018-12-26T16:02:08.434Z,11.93
2018-12-26T16:04:49.019Z,10.07
2018-12-26T16:07:32.964Z,11.50
2018-12-26T16:10:13.890Z,8.67
2018-12-26T16:12:54.844Z,9.40
2018-12-26T16:15:35.962Z,9.27
2018-12-26T16:18:17.179Z,10.77
2018-12-26T16:20:58.374Z,10.27
2018-12-26T16:23:39.364Z,10.33
2018-12-26T16:26:20.171Z,9.10
2018-12-26T16:29:01.312Z,9.67
2018-12-26T16:31:42.241Z,13.53
2018-12-26T16:34:22.965Z,12.20
2018-12-26T16:37:03.614Z,13.03
2018-12-26T16:39:44.926Z,12.60
2018-12-26T16:42:25.452Z,16.20
2018-12-26T16:45:05.953Z,11.57
2018-12-26T16:47:47.294Z,15.30
2018-12-26T16:50:28.308Z,11.00
2018-12-26T16:53:09.762Z,10.63
2018-12-26T16:55:50.989Z,10.07
2018-12-26T16:58:32.337Z,7.70
2018-12-26T17:01:13.598Z,15.23
2018-12-26T17:03:54.934Z,9.53
2018-12-26T17:06:35.718Z,7.17
2018-12-26T17:09:16.530Z,11.87
2018-12-26T17:11:57.446Z,13.27
2018-12-26T17:14:38.276Z,9.17
2018-12-26T17:17:19.363Z,8.90
2018-12-26T17:20:00.611Z,11.00
2018-12-26T17:22:41.708Z,8.00
2018-12-26T17:25:23.065Z,9.90
2018-12-26T17:28:03.977Z,10.53
2018-12-26T17:30:45.384Z,14.30
2018-12-26T17:33:26.693Z,14.20
2018-12-26T17:36:07.649Z,12.65
2018-12-26T17:38:48.615Z,9.87
2018-12-26T17:41:30.067Z,12.27
2018-12-26T17:44:11.507Z,14.93
2018-12-26T17:46:52.513Z,14.77
2018-12-26T17:49:33.217Z,18.80
2018-12-26T17:52:14.186Z,18.90
2018-12-26T17:54:55.278Z,15.23
2018-12-26T17:57:35.798Z,16.53
2018-12-26T18:00:17.113Z,13.60
2018-12-26T18:02:58.513Z,14.28
2018-12-26T18:05:39.102Z,11.40
2018-12-26T18:08:20.789Z,11.50
2018-12-26T18:11:01.636Z,12.37
2018-12-26T18:13:42.614Z,11.77
2018-12-26T18:16:23.185Z,18.40
2018-12-26T18:19:04.500Z,11.97
2018-12-26T18:21:45.758Z,15.88
2018-12-26T18:24:26.916Z,18.27
2018-12-26T18:27:08.664Z,19.63
2018-12-26T18:29:50.222Z,10.63
2018-12-26T18:32:31.683Z,11.55
2018-12-26T18:35:13.147Z,12.53
2018-12-26T18:37:54.750Z,10.63
2018-12-26T18:40:36.090Z,13.23
2018-12-26T18:43:17.789Z,7.70
2018-12-26T18:45:59.306Z,11.73
2018-12-26T18:48:40.542Z,11.80
2018-12-26T18:51:21.585Z,11.13
2018-12-26T18:54:02.656Z,13.33
2018-12-26T18:56:43.202Z,10.40
2018-12-26T18:59:24.301Z,15.40
2018-12-26T19:02:05.619Z,12.13
2018-12-26T19:04:46.537Z,12.65
2018-12-26T19:07:27.882Z,11.43
2018-12-26T19:10:09.005Z,11.28
2018-12-26T19:12:50.105Z,11.55
2018-12-26T19:15:31.098Z,14.38
2018-12-26T19:18:12.253Z,10.80
2018-12-26T19:20:53.247Z,13.03
2018-12-26T19:23:34.701Z,10.20
2018-12-26T19:26:16.172Z,16.05
2018-12-26T19:28:57.597Z,12.03
2018-12-26T19:31:39.723Z,10.58
2018-12-26T19:34:21.066Z,14.00
2018-12-26T19:37:02.207Z,15.83
2018-12-26T19:39:44.005Z,14.87
2018-12-26T19:42:25.527Z,16.85
2018-12-26T19:45:06.452Z,19.07
2018-12-26T19:47:47.793Z,17.35
2018-12-26T19:50:29.281Z,14.93
2018-12-26T19:53:10.470Z,15.53
2018-12-26T19:55:51.877Z,15.58
2018-12-26T19:58:33.387Z,17.25
2018-12-26T20:01:14.537Z,19.27
2018-12-26T20:03:55.528Z,19.48
2018-12-26T20:06:36.451Z,14.05
2018-12-26T20:09:17.595Z,11.00
2018-12-26T20:12:00.001Z,12.10
2018-12-26T20:14:48.609Z,13.53
2018-12-26T20:17:37.218Z,11.10
2018-12-26T20:20:25.723Z,11.22
2018-12-26T20:23:14.239Z,8.78
2018-12-26T20:26:02.834Z,8.60
2018-12-26T20:28:51.451Z,11.88
2018-12-26T20:31:40.079Z,9.60
2018-12-26T20:34:28.577Z,7.28
2018-12-26T20:37:17.180Z,11.38
2018-12-26T20:40:06.591Z,16.17
2018-12-26T20:42:55.200Z,13.78
2018-12-26T20:45:37.019Z,12.98
2018-12-26T20:48:18.421Z,12.28
2018-12-26T20:50:59.906Z,8.95
2018-12-26T20:53:40.931Z,8.25
2018-12-26T20:56:22.285Z,15.28
2018-12-26T20:59:03.561Z,21.02
2018-12-26T21:01:45.126Z,13.88
2018-12-26T21:04:26.746Z,12.43
2018-12-26T21:07:07.775Z,13.85
2018-12-26T21:09:48.689Z,12.37
2018-12-26T21:12:29.508Z,9.30
2018-12-26T21:15:10.333Z,10.75
2018-12-26T21:17:51.130Z,13.05
2018-12-26T21:20:32.350Z,6.53
2018-12-26T21:23:13.472Z,8.53
2018-12-26T21:25:54.495Z,8.40
2018-12-26T21:28:36.150Z,6.22
2018-12-26T21:31:18.727Z,10.40
2018-12-26T21:34:00.414Z,15.13
2018-12-26T21:36:42.043Z,7.83
2018-12-26T21:39:23.757Z,8.35
2018-12-26T21:42:05.003Z,11.10
2018-12-26T21:44:46.673Z,10.32
2018-12-26T21:47:27.605Z,10.78
2018-12-26T21:50:08.660Z,7.70
2018-12-26T21:52:50.365Z,13.98
2018-12-26T21:55:31.602Z,9.73
2018-12-26T21:58:13.234Z,10.65
2018-12-26T22:00:54.419Z,7.85
2018-12-26T22:03:35.957Z,8.03
2018-12-26T22:06:17.228Z,8.60
2018-12-26T22:08:58.529Z,8.68
2018-12-26T22:11:40.214Z,9.80
2018-12-26T22:14:21.092Z,11.43
2018-12-26T22:17:02.243Z,8.53
2018-12-26T22:19:43.786Z,11.53
2018-12-26T22:22:25.287Z,8.58
2018-12-26T22:25:06.551Z,8.38
2018-12-26T22:27:47.179Z,6.77
2018-12-26T22:30:28.925Z,7.40
2018-12-26T22:33:10.475Z,5.53
2018-12-26T22:35:51.962Z,8.05
2018-12-26T22:38:32.950Z,6.80
2018-12-26T22:41:14.014Z,7.42
2018-12-26T22:43:55.354Z,7.00
2018-12-26T22:46:36.593Z,2.75
2018-12-26T22:49:18.073Z,5.08
2018-12-26T22:51:59.981Z,0.90
2018-12-26T22:54:41.732Z,9.45
2018-12-26T22:57:22.703Z,4.05
2018-12-26T23:00:03.810Z,1.70
2018-12-26T23:02:44.987Z,4.22
2018-12-26T23:14:14.450Z,6.60
2018-12-26T23:16:55.581Z,7.85
2018-12-26T23:19:37.066Z,8.50
2018-12-26T23:22:18.533Z,6.28
2018-12-26T23:24:59.874Z,2.62
2018-12-26T23:27:40.887Z,4.90
2018-12-26T23:30:22.010Z,4.33
2018-12-26T23:33:03.568Z,2.30
2018-12-26T23:35:44.803Z,3.87
2018-12-26T23:38:26.229Z,4.07
2018-12-26T23:41:06.949Z,6.70
2018-12-26T23:43:48.198Z,7.33
2018-12-26T23:46:28.953Z,7.13
2018-12-26T23:49:10.349Z,4.70
2018-12-26T23:51:50.865Z,7.20
2018-12-26T23:54:32.241Z,3.60
2018-12-26T23:57:13.708Z,4.08
2018-12-26T23:59:55.041Z,3.67
